Alva, Kentucky
Current Conditions -  °F | °C
As of 4:55 PM on Saturday 25 Oct 2014 (Local Time) from KI35 Reporting Station
Overcast Overcast  
Wind Chill: 68°   Ceiling: 2900
Heat Index: 68°   Visibility: 10mi
Dew Point: 46°   Wind: 5mph
Humidity: 46%   Direction: 240°WSW
Pressure: 30.01"   Gusts: NA
Location:  36.747°N, 83.4563°W
Report Text: KI35 252055Z AUTO 24004KT 10SM BKN029 BKN036 OVC047 20/08 A3001 RMK AO1
Loading
Personal Weather Stations






























Interactive Weather Map
Tropical Storm Tracking
New forecast layout! Learn more

10-Day Weather Forecast

Advertisements
Track Severe Weather on mobile